createdAt,value
2018-12-20T00:00:34.217Z,54.77
2018-12-20T00:03:03.169Z,56.50
2018-12-20T00:05:31.549Z,58.17
2018-12-20T00:08:00.263Z,55.93
2018-12-20T00:10:29.505Z,58.70
2018-12-20T00:12:58.052Z,55.73
2018-12-20T00:15:26.605Z,53.10
2018-12-20T00:17:55.577Z,52.10
2018-12-20T00:20:24.328Z,57.37
2018-12-20T00:22:52.752Z,54.40
2018-12-20T00:25:21.363Z,50.30
2018-12-20T00:27:49.921Z,52.20
2018-12-20T00:30:19.237Z,55.60
2018-12-20T00:32:47.808Z,51.43
2018-12-20T00:35:16.394Z,56.23
2018-12-20T00:37:47.346Z,55.20
2018-12-20T00:40:16.424Z,48.20
2018-12-20T00:42:45.029Z,54.60
2018-12-20T00:45:13.537Z,56.20
2018-12-20T00:47:42.196Z,50.60
2018-12-20T00:50:10.690Z,52.90
2018-12-20T00:52:39.277Z,54.27
2018-12-20T00:55:08.241Z,51.57
2018-12-20T00:57:36.744Z,52.43
2018-12-20T01:00:08.242Z,48.90
2018-12-20T01:02:37.474Z,52.40
2018-12-20T01:05:06.481Z,47.60
2018-12-20T01:07:35.053Z,52.87
2018-12-20T01:10:04.119Z,47.00
2018-12-20T01:12:32.520Z,51.60
2018-12-20T01:15:01.152Z,49.03
2018-12-20T01:17:34.141Z,43.30
2018-12-20T01:20:02.712Z,47.10
2018-12-20T01:22:31.088Z,39.20
2018-12-20T01:24:59.881Z,39.60
2018-12-20T01:27:28.450Z,39.60
2018-12-20T01:29:56.938Z,40.00
2018-12-20T01:32:25.568Z,33.00
2018-12-20T01:34:54.200Z,27.63
2018-12-20T01:37:22.811Z,32.70
2018-12-20T01:39:51.407Z,29.63
2018-12-20T01:42:20.062Z,28.03
2018-12-20T01:44:53.487Z,31.67
2018-12-20T01:47:19.696Z,27.30
2018-12-20T01:49:48.427Z,29.10
2018-12-20T01:52:16.938Z,27.07
2018-12-20T01:54:45.963Z,23.33
2018-12-20T01:57:14.554Z,25.97
2018-12-20T01:59:43.083Z,28.90
2018-12-20T02:02:12.049Z,23.60
2018-12-20T02:04:40.634Z,22.70
2018-12-20T02:07:12.471Z,23.53
2018-12-20T02:09:41.082Z,24.87
2018-12-20T02:12:09.508Z,26.10
2018-12-20T02:14:38.291Z,25.27
2018-12-20T02:17:06.982Z,24.57
2018-12-20T02:19:35.433Z,22.70
2018-12-20T02:22:04.070Z,21.03
2018-12-20T02:24:32.635Z,19.87
2018-12-20T02:27:01.211Z,22.67
2018-12-20T02:29:30.404Z,18.17
2018-12-20T02:32:01.177Z,18.13
2018-12-20T02:34:29.811Z,17.23
2018-12-20T02:36:58.421Z,18.77
2018-12-20T02:39:26.983Z,16.67
2018-12-20T02:41:55.412Z,17.40
2018-12-20T02:44:23.994Z,17.40
2018-12-20T02:46:52.547Z,17.63
2018-12-20T02:49:21.206Z,19.33
2018-12-20T02:51:50.135Z,19.30
2018-12-20T02:54:18.904Z,15.40
2018-12-20T02:56:47.924Z,21.17
2018-12-20T02:59:17.012Z,15.17
2018-12-20T03:01:45.805Z,16.20
2018-12-20T03:04:14.416Z,14.87
2018-12-20T03:06:43.027Z,18.30
2018-12-20T03:09:11.621Z,15.20
2018-12-20T03:11:40.062Z,15.63
2018-12-20T03:14:09.107Z,14.60
2018-12-20T03:16:37.898Z,17.33
2018-12-20T03:19:06.673Z,15.17
2018-12-20T03:21:36.118Z,15.00
2018-12-20T03:24:04.795Z,15.53
2018-12-20T03:26:33.271Z,14.60
2018-12-20T03:29:01.854Z,17.30
2018-12-20T03:31:30.488Z,18.20
2018-12-20T03:33:59.234Z,17.23
2018-12-20T03:36:27.913Z,16.73
2018-12-20T03:38:56.819Z,17.87
2018-12-20T03:41:25.396Z,15.80
2018-12-20T03:43:54.078Z,16.57
2018-12-20T03:46:22.760Z,22.23
2018-12-20T03:48:51.824Z,16.97
2018-12-20T03:51:20.624Z,19.50
2018-12-20T03:53:49.640Z,17.63
2018-12-20T03:56:18.575Z,18.80
2018-12-20T03:58:47.630Z,16.57
2018-12-20T04:01:16.168Z,16.90
2018-12-20T04:03:44.581Z,15.00
2018-12-20T04:06:14.261Z,17.97
2018-12-20T04:08:43.033Z,15.37
2018-12-20T04:11:11.476Z,18.13
2018-12-20T04:13:40.104Z,14.43
2018-12-20T04:16:08.514Z,16.33
2018-12-20T04:18:37.117Z,14.77
2018-12-20T04:21:05.979Z,14.27
2018-12-20T04:23:41.410Z,14.60
2018-12-20T04:26:10.859Z,15.23
2018-12-20T04:28:39.364Z,14.10
2018-12-20T04:31:07.867Z,17.33
2018-12-20T04:33:36.669Z,18.47
2018-12-20T04:36:05.190Z,17.40
2018-12-20T04:38:33.742Z,16.60
2018-12-20T04:41:02.690Z,16.60
2018-12-20T04:43:31.325Z,17.70
2018-12-20T04:46:00.722Z,19.43
2018-12-20T04:48:29.626Z,18.43
2018-12-20T04:50:58.652Z,17.20
2018-12-20T04:53:27.548Z,19.30
2018-12-20T04:55:56.642Z,19.40
2018-12-20T04:58:25.222Z,18.63
2018-12-20T05:00:54.397Z,16.57
2018-12-20T05:03:23.107Z,18.20
2018-12-20T05:05:51.637Z,14.33
2018-12-20T05:08:20.267Z,17.00
2018-12-20T05:10:55.801Z,16.83
2018-12-20T05:13:24.977Z,19.07
2018-12-20T05:15:56.464Z,17.07
2018-12-20T05:18:25.163Z,19.90
2018-12-20T05:20:53.561Z,19.07
2018-12-20T05:23:22.089Z,15.30
2018-12-20T05:25:50.699Z,18.53
2018-12-20T05:28:19.421Z,16.63
2018-12-20T05:30:48.011Z,19.20
2018-12-20T05:33:16.812Z,17.80
2018-12-20T05:35:45.292Z,15.77
2018-12-20T05:38:13.748Z,16.33
2018-12-20T05:40:43.060Z,13.83
2018-12-20T05:43:11.979Z,14.13
2018-12-20T05:45:40.637Z,15.53
2018-12-20T05:48:09.715Z,13.80
2018-12-20T05:50:38.140Z,15.03
2018-12-20T05:53:06.637Z,13.20
2018-12-20T05:55:35.448Z,14.03
2018-12-20T05:58:03.921Z,12.73
2018-12-20T06:00:32.410Z,13.23
2018-12-20T06:03:01.254Z,12.73
2018-12-20T06:05:29.652Z,12.33
2018-12-20T06:07:58.193Z,13.83
2018-12-20T06:10:27.222Z,12.40
2018-12-20T06:13:00.650Z,13.10
2018-12-20T06:15:29.904Z,14.20
2018-12-20T06:17:58.542Z,14.57
2018-12-20T06:20:27.518Z,12.47
2018-12-20T06:22:56.253Z,15.30
2018-12-20T06:25:24.633Z,16.30
2018-12-20T06:27:53.231Z,14.40
2018-12-20T06:30:21.960Z,14.03
2018-12-20T06:32:50.353Z,14.00
2018-12-20T06:35:18.871Z,15.33
2018-12-20T06:37:47.771Z,16.47
2018-12-20T06:40:16.476Z,15.53
2018-12-20T06:42:45.292Z,12.53
2018-12-20T06:45:14.406Z,15.00
2018-12-20T06:47:43.073Z,13.40
2018-12-20T06:50:11.498Z,18.10
2018-12-20T06:52:40.033Z,15.20
2018-12-20T06:55:08.729Z,15.63
2018-12-20T06:57:37.102Z,14.93
2018-12-20T07:00:06.783Z,13.63
2018-12-20T07:02:35.157Z,15.20
2018-12-20T07:05:03.645Z,14.13
2018-12-20T07:07:32.546Z,15.47
2018-12-20T07:10:00.914Z,14.53
2018-12-20T07:12:29.317Z,16.63
2018-12-20T07:14:57.846Z,13.57
2018-12-20T07:17:26.257Z,15.57
2018-12-20T07:19:54.640Z,16.13
2018-12-20T07:22:29.942Z,16.67
2018-12-20T07:24:58.344Z,15.73
2018-12-20T07:27:27.734Z,19.83
2018-12-20T07:29:56.610Z,13.27
2018-12-20T07:32:25.582Z,14.03
2018-12-20T07:34:54.106Z,14.63
2018-12-20T07:37:24.392Z,14.77
2018-12-20T07:39:53.228Z,17.87
2018-12-20T07:42:21.620Z,17.80
2018-12-20T07:44:50.567Z,13.33
2018-12-20T07:47:19.085Z,13.53
2018-12-20T07:49:47.483Z,16.10
2018-12-20T07:52:16.880Z,16.23
2018-12-20T07:54:45.414Z,15.13
2018-12-20T07:57:13.900Z,14.87
2018-12-20T07:59:42.679Z,18.53
2018-12-20T08:02:11.153Z,18.40
2018-12-20T08:04:39.548Z,13.27
2018-12-20T08:07:08.427Z,13.33
2018-12-20T08:09:36.810Z,16.80
2018-12-20T08:12:05.535Z,13.10
2018-12-20T08:14:34.086Z,13.30
2018-12-20T08:17:02.944Z,14.23
2018-12-20T08:19:36.280Z,15.37
2018-12-20T08:22:02.680Z,14.47
2018-12-20T08:24:31.097Z,13.87
2018-12-20T08:26:59.670Z,17.03
2018-12-20T08:29:29.653Z,15.47
2018-12-20T08:31:58.090Z,14.73
2018-12-20T08:34:26.654Z,16.30
2018-12-20T08:36:55.400Z,14.87
2018-12-20T08:39:23.876Z,13.43
2018-12-20T08:41:52.298Z,14.30
2018-12-20T08:44:21.096Z,15.87
2018-12-20T08:46:54.308Z,15.73
2018-12-20T08:49:19.929Z,13.33
2018-12-20T08:51:49.185Z,15.33
2018-12-20T08:54:17.916Z,19.70
2018-12-20T08:56:46.337Z,14.30
2018-12-20T08:59:15.377Z,15.00
2018-12-20T09:01:43.971Z,16.23
2018-12-20T09:04:12.598Z,15.43
2018-12-20T09:06:41.421Z,16.17
2018-12-20T09:09:09.937Z,15.17
2018-12-20T09:11:38.328Z,16.33
2018-12-20T09:14:07.164Z,13.40
2018-12-20T09:16:35.550Z,15.03
2018-12-20T09:19:04.007Z,14.63
2018-12-20T09:21:32.657Z,18.53
2018-12-20T09:24:01.174Z,16.27
2018-12-20T09:26:29.572Z,17.93
2018-12-20T09:28:58.208Z,17.83
2018-12-20T09:31:26.612Z,17.10
2018-12-20T09:33:55.050Z,16.10
2018-12-20T09:36:23.678Z,16.73
2018-12-20T09:38:58.673Z,16.60
2018-12-20T09:41:27.690Z,17.50
2018-12-20T09:43:56.108Z,16.67
2018-12-20T09:46:24.510Z,16.47
2018-12-20T09:48:53.396Z,14.43
2018-12-20T09:51:22.856Z,16.03
2018-12-20T09:53:51.257Z,15.43
2018-12-20T09:56:20.662Z,15.47
2018-12-20T09:58:49.670Z,15.77
2018-12-20T10:01:18.216Z,14.93
2018-12-20T10:03:46.664Z,14.07
2018-12-20T10:06:15.299Z,13.90
2018-12-20T10:08:43.847Z,17.37
2018-12-20T10:11:12.383Z,14.17
2018-12-20T10:13:40.891Z,14.83
2018-12-20T10:16:09.315Z,17.53
2018-12-20T10:18:38.029Z,14.13
2018-12-20T10:21:06.696Z,13.60
2018-12-20T10:23:35.081Z,16.03
2018-12-20T10:26:03.645Z,16.90
2018-12-20T10:28:32.407Z,15.17
2018-12-20T10:31:00.818Z,18.17
2018-12-20T10:33:29.258Z,18.27
2018-12-20T10:35:58.159Z,16.40
2018-12-20T10:38:26.572Z,15.70
2018-12-20T10:40:55.121Z,16.03
2018-12-20T10:43:24.457Z,17.90
2018-12-20T10:45:52.849Z,18.47
2018-12-20T10:48:21.306Z,45.47
2018-12-20T10:50:50.267Z,19.53
2018-12-20T10:53:18.661Z,17.23
2018-12-20T10:55:47.380Z,16.53
2018-12-20T10:58:15.889Z,23.07
2018-12-20T11:00:49.603Z,27.60
2018-12-20T11:03:23.470Z,17.50
2018-12-20T11:06:12.073Z,16.07
2018-12-20T11:08:45.121Z,56.10
2018-12-20T11:11:17.812Z,27.23
2018-12-20T11:13:47.088Z,17.87
2018-12-20T11:16:15.529Z,17.50
2018-12-20T11:18:44.069Z,19.53
2018-12-20T11:21:12.830Z,19.60
2018-12-20T11:23:41.326Z,15.03
2018-12-20T11:26:09.821Z,17.43
2018-12-20T11:28:38.649Z,18.23
2018-12-20T11:31:07.161Z,18.33
2018-12-20T11:33:36.328Z,17.57
2018-12-20T11:36:04.959Z,20.10
2018-12-20T11:38:33.439Z,14.93
2018-12-20T11:41:02.449Z,16.73
2018-12-20T11:43:37.746Z,15.27
2018-12-20T11:46:06.422Z,16.57
2018-12-20T11:48:34.837Z,15.87
2018-12-20T11:51:03.433Z,18.33
2018-12-20T11:53:31.841Z,13.97
2018-12-20T11:56:00.493Z,15.10
2018-12-20T11:58:29.628Z,18.67
2018-12-20T12:00:58.077Z,20.53
2018-12-20T12:03:26.896Z,17.03
2018-12-20T12:05:55.668Z,15.20
2018-12-20T12:08:24.101Z,22.13
2018-12-20T12:10:52.521Z,19.67
2018-12-20T12:13:21.433Z,14.83
2018-12-20T12:15:49.912Z,17.83
2018-12-20T12:18:18.313Z,14.97
2018-12-20T12:20:47.488Z,16.60
2018-12-20T12:23:15.925Z,16.07
2018-12-20T12:25:44.426Z,15.97
2018-12-20T12:28:13.584Z,16.90
2018-12-20T12:30:42.038Z,16.50
2018-12-20T12:33:10.460Z,15.70
2018-12-20T12:35:38.983Z,18.87
2018-12-20T12:38:07.530Z,16.47
2018-12-20T12:40:35.956Z,18.10
2018-12-20T12:43:04.464Z,17.30
2018-12-20T12:45:32.876Z,19.30
2018-12-20T12:48:03.626Z,15.80
2018-12-20T12:50:32.377Z,16.17
2018-12-20T12:53:00.873Z,17.27
2018-12-20T12:55:29.300Z,15.33
2018-12-20T12:58:04.694Z,17.50
2018-12-20T13:00:28.666Z,18.77
2018-12-20T13:02:57.220Z,18.83
2018-12-20T13:05:25.909Z,24.17
2018-12-20T13:07:54.368Z,19.93
2018-12-20T13:10:22.813Z,18.70
2018-12-20T13:12:51.422Z,20.60
2018-12-20T13:15:19.918Z,18.63
2018-12-20T13:17:48.502Z,18.60
2018-12-20T13:20:17.425Z,19.40
2018-12-20T13:22:47.046Z,19.13
2018-12-20T13:25:15.492Z,20.80
2018-12-20T13:27:43.995Z,19.97
2018-12-20T13:30:13.321Z,21.00
2018-12-20T13:32:41.761Z,23.93
2018-12-20T13:35:10.376Z,21.33
2018-12-20T13:37:38.902Z,24.90
2018-12-20T13:40:07.329Z,22.00
2018-12-20T13:42:36.192Z,19.57
2018-12-20T13:45:05.264Z,26.00
2018-12-20T13:47:33.661Z,22.03
2018-12-20T13:50:02.665Z,21.47
2018-12-20T13:52:32.987Z,20.60
2018-12-20T13:55:01.425Z,20.10
2018-12-20T13:57:29.947Z,20.87
2018-12-20T13:59:58.556Z,20.93
2018-12-20T14:02:26.950Z,21.67
2018-12-20T14:04:55.903Z,20.77
2018-12-20T14:07:24.791Z,20.43
2018-12-20T14:09:53.279Z,19.57
2018-12-20T14:12:21.920Z,19.37
2018-12-20T14:14:50.424Z,21.97
2018-12-20T14:17:18.844Z,20.40
2018-12-20T14:19:47.413Z,22.60
2018-12-20T14:22:15.935Z,22.03
2018-12-20T14:24:44.457Z,21.77
2018-12-20T14:27:13.486Z,21.83
2018-12-20T14:29:41.921Z,19.60
2018-12-20T14:32:10.350Z,19.80
2018-12-20T14:34:39.204Z,22.10
2018-12-20T14:37:07.712Z,22.17
2018-12-20T14:39:43.340Z,22.83
2018-12-20T14:42:11.850Z,21.53
2018-12-20T14:44:40.258Z,27.27
2018-12-20T14:47:08.892Z,20.90
2018-12-20T14:49:37.424Z,25.77
2018-12-20T14:52:05.832Z,29.53
2018-12-20T14:54:35.150Z,21.73
2018-12-20T14:57:03.677Z,22.70
2018-12-20T14:59:32.464Z,23.40
2018-12-20T15:02:01.156Z,22.43
2018-12-20T15:04:29.578Z,23.10
2018-12-20T15:06:58.016Z,22.83
2018-12-20T15:09:26.954Z,22.30
2018-12-20T15:11:55.831Z,18.07
2018-12-20T15:14:24.266Z,24.50
2018-12-20T15:16:52.744Z,21.90
2018-12-20T15:19:21.236Z,20.30
2018-12-20T15:21:49.641Z,23.03
2018-12-20T15:24:18.445Z,22.00
2018-12-20T15:26:46.982Z,21.87
2018-12-20T15:29:15.423Z,21.97
2018-12-20T15:31:43.933Z,26.13
2018-12-20T15:34:12.387Z,25.23
2018-12-20T15:36:40.787Z,24.93
2018-12-20T15:39:09.290Z,24.33
2018-12-20T15:41:44.480Z,24.43
2018-12-20T15:44:13.059Z,21.47
2018-12-20T15:46:41.595Z,24.97
2018-12-20T15:49:10.089Z,22.50
2018-12-20T15:51:38.960Z,23.53
2018-12-20T15:54:07.349Z,24.90
2018-12-20T15:56:35.820Z,26.17
2018-12-20T15:59:04.304Z,23.07
2018-12-20T16:01:32.716Z,24.27
2018-12-20T16:04:01.346Z,24.47
2018-12-20T16:06:30.167Z,28.23
2018-12-20T16:08:58.701Z,26.73
2018-12-20T16:11:27.332Z,26.77
2018-12-20T16:13:55.804Z,25.30
2018-12-20T16:16:24.198Z,21.87
2018-12-20T16:18:52.678Z,26.13
2018-12-20T16:21:21.291Z,23.47
2018-12-20T16:23:49.848Z,23.47
2018-12-20T16:26:19.281Z,24.60
2018-12-20T16:28:47.869Z,27.37
2018-12-20T16:31:16.294Z,24.23
2018-12-20T16:33:44.749Z,24.60
2018-12-20T16:36:13.451Z,26.47
2018-12-20T16:38:41.856Z,23.83
2018-12-20T16:41:10.384Z,25.87
2018-12-20T16:43:39.024Z,22.03
2018-12-20T16:46:07.422Z,24.47
2018-12-20T16:48:35.869Z,28.00
2018-12-20T16:51:04.587Z,17.50
2018-12-20T16:53:32.980Z,20.27
2018-12-20T16:56:01.432Z,26.80
2018-12-20T16:58:29.953Z,23.70
2018-12-20T17:00:58.471Z,25.97
2018-12-20T17:03:26.917Z,21.03
2018-12-20T17:05:55.877Z,22.13
2018-12-20T17:08:24.256Z,23.47
2018-12-20T17:10:52.697Z,23.57
2018-12-20T17:13:21.465Z,22.27
2018-12-20T17:15:49.986Z,22.50
2018-12-20T17:18:18.679Z,24.33
2018-12-20T17:20:47.298Z,24.00
2018-12-20T17:23:15.741Z,21.53
2018-12-20T17:25:44.197Z,21.60
2018-12-20T17:28:13.720Z,24.40
2018-12-20T17:30:42.490Z,23.57
2018-12-20T17:33:10.915Z,22.97
2018-12-20T17:35:39.751Z,22.67
2018-12-20T17:38:08.168Z,24.53
2018-12-20T17:40:36.589Z,22.60
2018-12-20T17:43:05.136Z,21.93
2018-12-20T17:45:34.314Z,20.97
2018-12-20T17:48:02.748Z,21.00
2018-12-20T17:50:31.500Z,20.00
2018-12-20T17:52:59.890Z,23.00
2018-12-20T17:55:28.384Z,22.00
2018-12-20T17:57:56.874Z,19.77
2018-12-20T18:00:25.382Z,20.63
2018-12-20T18:02:53.905Z,22.73
2018-12-20T18:05:22.561Z,21.10
2018-12-20T18:07:50.982Z,18.80
2018-12-20T18:10:19.536Z,20.57
2018-12-20T18:12:48.056Z,21.07
2018-12-20T18:15:16.857Z,21.40
2018-12-20T18:17:45.353Z,19.47
2018-12-20T18:20:14.237Z,19.60
2018-12-20T18:22:42.700Z,20.10
2018-12-20T18:25:11.218Z,20.73
2018-12-20T18:27:39.809Z,20.63
2018-12-20T18:30:11.009Z,21.63
2018-12-20T18:32:39.430Z,24.80
2018-12-20T18:35:08.329Z,18.17
2018-12-20T18:37:36.778Z,17.70
2018-12-20T18:40:06.659Z,21.07
2018-12-20T18:42:35.269Z,18.87
2018-12-20T18:45:04.057Z,18.63
2018-12-20T18:47:32.444Z,18.37
2018-12-20T18:50:01.243Z,22.13
2018-12-20T18:52:29.702Z,20.83
2018-12-20T18:54:58.077Z,19.97
2018-12-20T18:57:27.245Z,19.50
2018-12-20T18:59:55.672Z,22.03
2018-12-20T19:02:26.496Z,19.50
2018-12-20T19:04:55.223Z,19.60
2018-12-20T19:07:29.138Z,22.70
2018-12-20T19:09:57.774Z,19.57
2018-12-20T19:12:26.212Z,19.33
2018-12-20T19:14:54.906Z,17.20
2018-12-20T19:17:23.869Z,18.57
2018-12-20T19:19:56.204Z,19.20
2018-12-20T19:22:22.816Z,18.00
2018-12-20T19:24:51.536Z,18.97
2018-12-20T19:27:19.985Z,18.63
2018-12-20T19:29:48.412Z,18.83
2018-12-20T19:32:17.962Z,21.60
2018-12-20T19:34:46.460Z,20.57
2018-12-20T19:37:14.910Z,19.17
2018-12-20T19:39:45.427Z,20.03
2018-12-20T19:42:16.285Z,19.83
2018-12-20T19:44:44.936Z,17.83
2018-12-20T19:47:13.507Z,20.93
2018-12-20T19:49:42.004Z,19.87
2018-12-20T19:52:10.585Z,19.23
2018-12-20T19:54:39.070Z,18.43
2018-12-20T19:57:07.653Z,20.07
2018-12-20T19:59:38.744Z,19.23
2018-12-20T20:02:06.874Z,17.93
2018-12-20T20:04:35.710Z,21.53
2018-12-20T20:07:04.491Z,21.80
2018-12-20T20:09:32.984Z,22.30
2018-12-20T20:12:01.432Z,21.20
2018-12-20T20:14:30.139Z,19.10
2018-12-20T20:16:58.702Z,19.77
2018-12-20T20:19:27.572Z,21.50
2018-12-20T20:21:56.053Z,18.80
2018-12-20T20:24:24.467Z,18.77
2018-12-20T20:26:52.961Z,18.47
2018-12-20T20:29:21.621Z,18.13
2018-12-20T20:31:50.220Z,20.07
2018-12-20T20:34:18.960Z,16.73
2018-12-20T20:36:47.498Z,20.07
2018-12-20T20:39:16.750Z,20.83
2018-12-20T20:41:45.437Z,19.33
2018-12-20T20:44:14.000Z,21.83
2018-12-20T20:46:42.796Z,19.33
2018-12-20T20:49:11.404Z,15.87
2018-12-20T20:51:40.156Z,17.53
2018-12-20T20:54:08.562Z,18.63
2018-12-20T20:56:37.784Z,14.77
2018-12-20T20:59:06.477Z,17.73
2018-12-20T21:01:34.900Z,20.57
2018-12-20T21:04:03.961Z,20.83
2018-12-20T21:06:33.316Z,16.73
2018-12-20T21:09:02.065Z,20.37
2018-12-20T21:11:30.605Z,18.60
2018-12-20T21:14:00.721Z,18.50
2018-12-20T21:16:29.296Z,20.07
2018-12-20T21:18:58.414Z,18.37
2018-12-20T21:21:26.983Z,17.33
2018-12-20T21:23:55.377Z,18.53
2018-12-20T21:26:23.805Z,17.97
2018-12-20T21:28:52.540Z,16.70
2018-12-20T21:31:20.932Z,17.00
2018-12-20T21:33:49.348Z,17.53
2018-12-20T21:36:18.152Z,18.10
2018-12-20T21:38:46.641Z,19.67
2018-12-20T21:41:15.929Z,17.07
2018-12-20T21:43:44.501Z,18.90
2018-12-20T21:46:13.472Z,16.43
2018-12-20T21:48:41.941Z,17.97
2018-12-20T21:53:54.814Z,18.77
2018-12-20T21:56:18.681Z,17.43
2018-12-20T21:58:47.163Z,17.87
2018-12-20T22:01:16.072Z,16.07
2018-12-20T22:03:44.456Z,16.20
2018-12-20T22:06:12.920Z,16.60
2018-12-20T22:08:48.901Z,18.23
2018-12-20T22:11:17.280Z,17.83
2018-12-20T22:13:45.676Z,20.57
2018-12-20T22:16:14.200Z,18.30
2018-12-20T22:18:42.606Z,16.03
2018-12-20T22:21:11.193Z,15.57
2018-12-20T22:23:39.967Z,18.00
2018-12-20T22:26:08.688Z,17.87
2018-12-20T22:28:37.082Z,16.83
2018-12-20T22:31:05.621Z,18.97
2018-12-20T22:33:34.044Z,17.50
2018-12-20T22:36:02.580Z,19.87
2018-12-20T22:38:31.273Z,16.60
2018-12-20T22:40:59.649Z,19.37
2018-12-20T22:43:28.040Z,17.77
2018-12-20T22:45:56.595Z,16.43
2018-12-20T22:48:24.999Z,17.40
2018-12-20T22:50:56.059Z,16.80
2018-12-20T22:53:23.909Z,15.30
2018-12-20T22:55:59.041Z,15.47
2018-12-20T22:58:27.820Z,17.43
2018-12-20T23:00:56.477Z,17.83
2018-12-20T23:03:24.865Z,17.60
2018-12-20T23:05:53.431Z,17.30
2018-12-20T23:08:21.832Z,18.00
2018-12-20T23:10:50.240Z,19.43
2018-12-20T23:13:19.124Z,17.43
2018-12-20T23:15:47.825Z,18.50
2018-12-20T23:18:16.241Z,17.77
2018-12-20T23:20:44.857Z,19.07
2018-12-20T23:23:13.338Z,16.53
2018-12-20T23:25:41.813Z,17.00
2018-12-20T23:28:10.501Z,17.93
2018-12-20T23:30:38.875Z,19.53
2018-12-20T23:33:07.581Z,18.27
2018-12-20T23:35:36.719Z,19.50
2018-12-20T23:38:05.118Z,19.93
2018-12-20T23:40:33.819Z,19.40
2018-12-20T23:43:02.679Z,19.10
2018-12-20T23:45:31.056Z,17.40
2018-12-20T23:47:59.429Z,16.60
2018-12-20T23:50:28.366Z,16.90
2018-12-20T23:52:56.752Z,16.70
2018-12-20T23:55:25.207Z,17.70
2018-12-20T23:57:54.118Z,16.90
